ADDS METAR Data INFO
IDs: Format: Raw Decoded Include TAF

Data at: 1009 UTC 14 Dec 2017

METAR for:KHWO (Hollywood/North Perr, FL, US)
Text:KHWO 140953Z 00000KT 10SM CLR 07/06 A3007 RMK AO2 SLP182 T00720056 $
Temperature: 7.2°C ( 45°F)
Dewpoint: 5.6°C ( 42°F) [RH = 90%]
Pressure (altimeter):30.07 inches Hg (1018.4 mb) [Sea level pressure: 1018.2 mb]
Winds:calm
Visibility:10 or more sm (16+ km)
Ceiling:at least 12,000 feet AGL
Clouds:sky clear below 12,000 feet AGL
QC Flag:SOME DATA ABOVE MAY BE INACCURATE!!!"$" is an indication the sensor requires maintenance.